createdAt,value
2023-01-06T00:00:31.252Z,83.27
2023-01-06T00:10:36.454Z,80.83
2023-01-06T00:20:41.316Z,84.83
2023-01-06T00:30:45.077Z,84.60
2023-01-06T00:40:50.796Z,82.87
2023-01-06T00:51:01.996Z,84.77
2023-01-06T01:01:08.665Z,86.63
2023-01-06T01:11:35.048Z,89.07
2023-01-06T01:21:40.406Z,89.23
2023-01-06T01:31:44.359Z,80.23
2023-01-06T01:41:50.012Z,83.63
2023-01-06T01:51:56.660Z,79.57
2023-01-06T02:02:03.148Z,81.83
2023-01-06T02:12:07.484Z,86.03
2023-01-06T02:22:34.160Z,86.87
2023-01-06T02:32:55.081Z,82.37
2023-01-06T02:43:12.105Z,86.20
2023-01-06T02:53:24.009Z,81.40
2023-01-06T03:03:31.173Z,78.63
2023-01-06T03:13:41.434Z,80.40
2023-01-06T03:23:46.764Z,84.37
2023-01-06T03:34:01.084Z,77.43
2023-01-06T03:44:11.756Z,83.53
2023-01-06T03:54:27.594Z,80.33
2023-01-06T04:04:33.979Z,82.73
2023-01-06T04:14:39.091Z,81.30
2023-01-06T04:24:43.401Z,82.47
2023-01-06T04:34:48.660Z,79.47
2023-01-06T04:44:52.419Z,85.47
2023-01-06T04:54:57.250Z,83.50
2023-01-06T05:05:00.700Z,85.30
2023-01-06T05:15:06.746Z,86.60
2023-01-06T05:25:10.732Z,87.77
2023-01-06T05:35:15.634Z,86.80
2023-01-06T05:45:19.102Z,88.77
2023-01-06T05:55:23.937Z,83.87
2023-01-06T06:05:27.513Z,84.67
2023-01-06T06:15:32.343Z,85.67
2023-01-06T06:25:35.758Z,81.37
2023-01-06T06:35:40.579Z,85.00
2023-01-06T06:45:46.253Z,81.13
2023-01-06T06:55:51.154Z,83.37
2023-01-06T07:05:54.999Z,84.00
2023-01-06T07:15:59.908Z,83.90
2023-01-06T07:26:04.413Z,82.57
2023-01-06T07:36:10.573Z,82.30
2023-01-06T07:46:14.105Z,84.17
2023-01-06T07:56:19.075Z,89.07
2023-01-06T08:06:22.543Z,92.37
2023-01-06T08:16:27.376Z,86.53
2023-01-06T08:26:30.817Z,85.80
2023-01-06T08:36:35.693Z,89.43
2023-01-06T08:46:39.211Z,85.17
2023-01-06T08:56:44.794Z,81.77
2023-01-06T09:06:48.438Z,84.23
2023-01-06T09:16:53.298Z,83.97
2023-01-06T09:26:56.787Z,85.60
2023-01-06T09:37:01.702Z,85.00
2023-01-06T09:47:05.456Z,86.90
2023-01-06T09:57:17.084Z,82.60
2023-01-06T10:07:29.160Z,81.43
2023-01-06T10:17:54.740Z,84.03
2023-01-06T10:28:09.841Z,84.37
2023-01-06T10:38:15.486Z,83.57
2023-01-06T10:48:22.271Z,83.10
2023-01-06T10:58:35.800Z,83.67
2023-01-06T11:08:41.005Z,86.17
2023-01-06T11:18:52.292Z,82.90
2023-01-06T11:28:56.796Z,83.07
2023-01-06T11:39:05.118Z,82.30
2023-01-06T11:49:16.975Z,82.20
2023-01-06T11:59:25.636Z,83.80
2023-01-06T12:09:34.826Z,87.23
2023-01-06T12:19:46.337Z,89.30
2023-01-06T12:29:51.507Z,95.47
2023-01-06T12:40:02.068Z,98.57
2023-01-06T12:50:12.667Z,102.57
2023-01-06T13:00:44.338Z,103.90
2023-01-06T13:10:54.380Z,106.10
2023-01-06T13:21:05.892Z,99.27
2023-01-06T13:31:41.764Z,99.17
2023-01-06T13:41:50.370Z,96.30
2023-01-06T13:51:55.373Z,95.60
2023-01-06T14:02:00.494Z,95.10
2023-01-06T14:12:10.773Z,89.43
2023-01-06T14:22:19.407Z,87.03
2023-01-06T14:33:19.851Z,85.73
2023-01-06T14:44:31.729Z,86.90
2023-01-06T14:54:39.179Z,82.60
2023-01-06T15:04:45.606Z,87.07
2023-01-06T15:14:49.127Z,84.60
2023-01-06T15:24:54.387Z,87.57
2023-01-06T15:34:59.563Z,85.70
2023-01-06T15:45:07.767Z,84.07
2023-01-06T15:55:25.864Z,86.37
2023-01-06T16:05:41.186Z,88.03
2023-01-06T16:15:50.198Z,90.13
2023-01-06T16:26:06.092Z,87.73
2023-01-06T16:36:18.639Z,84.63
2023-01-06T16:46:27.377Z,88.00
2023-01-06T16:56:31.059Z,85.00
2023-01-06T17:06:35.926Z,86.80
2023-01-06T17:16:42.857Z,86.20
2023-01-06T17:26:53.290Z,91.57
2023-01-06T17:36:57.891Z,92.07
2023-01-06T17:47:05.602Z,91.90
2023-01-06T17:57:15.171Z,95.83
2023-01-06T18:07:20.001Z,90.23
2023-01-06T18:17:27.323Z,87.90
2023-01-06T18:27:36.912Z,85.60
2023-01-06T18:37:40.935Z,87.47
2023-01-06T18:47:51.618Z,99.83
2023-01-06T18:58:01.816Z,99.80
2023-01-06T19:08:16.159Z,99.23
2023-01-06T19:18:20.821Z,96.33
2023-01-06T19:28:28.120Z,92.27
2023-01-06T19:38:36.527Z,90.80
2023-01-06T19:48:43.128Z,93.47
2023-01-06T19:58:53.385Z,101.87
2023-01-06T20:08:58.481Z,107.97
2023-01-06T20:19:02.070Z,101.97
2023-01-06T20:29:08.060Z,103.13
2023-01-06T20:39:12.177Z,106.20
2023-01-06T20:49:20.464Z,105.13
2023-01-06T20:59:24.015Z,105.87
2023-01-06T21:09:29.423Z,127.23
2023-01-06T21:19:34.047Z,126.47
2023-01-06T21:29:39.400Z,132.33
2023-01-06T21:39:43.550Z,143.23
2023-01-06T21:49:48.401Z,139.63
2023-01-06T21:59:51.905Z,141.60
2023-01-06T22:09:58.641Z,135.47
2023-01-06T22:20:03.697Z,133.73
2023-01-06T22:30:10.843Z,131.23
2023-01-06T22:40:15.795Z,118.57
2023-01-06T22:50:56.739Z,109.63
2023-01-06T23:01:00.391Z,108.30
2023-01-06T23:11:08.852Z,95.70
2023-01-06T23:21:14.913Z,91.70
2023-01-06T23:31:21.864Z,87.80
2023-01-06T23:41:28.429Z,94.63
2023-01-06T23:51:33.944Z,94.70
